createdAt,value
2022-11-25T00:00:01.634Z,100556.52
2022-11-25T00:04:00.694Z,100561.82
2022-11-25T00:07:27.844Z,100568.00
2022-11-25T00:10:55.146Z,100565.43
2022-11-25T00:14:22.382Z,100563.45
2022-11-25T00:17:49.088Z,100565.45
2022-11-25T00:21:20.181Z,100563.48
2022-11-25T00:24:47.152Z,100566.56
2022-11-25T00:28:18.546Z,100565.60
2022-11-25T00:31:45.919Z,100568.61
2022-11-25T00:35:16.088Z,100571.80
2022-11-25T00:38:43.222Z,100578.71
2022-11-25T00:42:28.430Z,100577.55
2022-11-25T00:45:58.536Z,100576.95
2022-11-25T00:49:26.741Z,100575.44
2022-11-25T00:52:55.928Z,100578.02
2022-11-25T00:56:23.835Z,100583.86
2022-11-25T00:59:51.279Z,100582.66
2022-11-25T01:03:21.197Z,100581.63
2022-11-25T01:06:53.430Z,100584.68
2022-11-25T01:10:21.672Z,100585.83
2022-11-25T01:13:49.655Z,100586.64
2022-11-25T01:17:16.824Z,100587.09
2022-11-25T01:20:43.832Z,100591.62
2022-11-25T01:24:14.067Z,100596.25
2022-11-25T01:27:43.440Z,100594.58
2022-11-25T01:31:12.705Z,100597.47
2022-11-25T01:34:39.557Z,100595.09
2022-11-25T01:38:06.921Z,100593.75
2022-11-25T01:41:36.194Z,100599.29
2022-11-25T01:45:34.493Z,100601.08
2022-11-25T01:49:06.146Z,100601.81
2022-11-25T01:52:37.685Z,100604.44
2022-11-25T01:56:07.589Z,100600.21
2022-11-25T01:59:44.025Z,100599.19
2022-11-25T02:03:12.294Z,100598.98
2022-11-25T02:06:44.334Z,100601.52
2022-11-25T02:10:17.229Z,100600.23
2022-11-25T02:13:42.953Z,100598.77
2022-11-25T02:17:10.832Z,100603.40
2022-11-25T02:20:40.231Z,100606.31
2022-11-25T02:24:16.145Z,100601.34
2022-11-25T02:27:46.307Z,100602.16
2022-11-25T02:31:13.593Z,100603.11
2022-11-25T02:34:49.948Z,100603.94
2022-11-25T02:38:20.876Z,100598.14
2022-11-25T02:41:53.289Z,100596.10
2022-11-25T02:45:27.923Z,100596.67
2022-11-25T02:49:11.687Z,100598.27
2022-11-25T02:52:41.065Z,100596.64
2022-11-25T02:56:10.858Z,100593.77
2022-11-25T02:59:38.829Z,100597.07
2022-11-25T03:03:06.552Z,100596.53
2022-11-25T03:06:41.255Z,100589.17
2022-11-25T03:10:10.380Z,100599.55
2022-11-25T03:13:40.395Z,100603.96
2022-11-25T03:17:11.124Z,100608.38
2022-11-25T03:20:39.951Z,100610.08
2022-11-25T03:24:10.956Z,100613.48
2022-11-25T03:27:42.817Z,100617.13
2022-11-25T03:31:13.504Z,100617.57
2022-11-25T03:34:43.061Z,100617.05
2022-11-25T03:38:10.581Z,100619.81
2022-11-25T03:41:44.514Z,100615.41
2022-11-25T03:45:15.289Z,100619.91
2022-11-25T03:48:44.330Z,100620.29
2022-11-25T03:52:12.086Z,100620.49
2022-11-25T03:55:41.174Z,100618.66
2022-11-25T03:59:09.462Z,100617.13
2022-11-25T04:02:37.016Z,100617.31
2022-11-25T04:06:04.565Z,100615.61
2022-11-25T04:09:35.372Z,100618.73
2022-11-25T04:13:07.378Z,100620.81
2022-11-25T04:16:41.053Z,100631.14
2022-11-25T04:20:14.315Z,100636.44
2022-11-25T04:23:45.170Z,100637.95
2022-11-25T04:27:13.038Z,100644.96
2022-11-25T04:30:42.376Z,100650.36
2022-11-25T04:34:10.961Z,100651.83
2022-11-25T04:37:44.197Z,100648.96
2022-11-25T04:41:18.044Z,100651.30
2022-11-25T04:45:01.041Z,100648.86
2022-11-25T04:48:32.851Z,100645.80
2022-11-25T04:52:00.090Z,100649.20
2022-11-25T04:55:30.182Z,100652.25
2022-11-25T04:59:16.635Z,100654.48
2022-11-25T05:02:47.489Z,100657.77
2022-11-25T05:06:22.579Z,100659.36
2022-11-25T05:09:49.982Z,100660.08
2022-11-25T05:13:25.044Z,100659.63
2022-11-25T05:16:52.469Z,100669.08
2022-11-25T05:20:27.427Z,100669.80
2022-11-25T05:23:56.958Z,100668.08
2022-11-25T05:27:26.574Z,100672.68
2022-11-25T05:30:54.255Z,100679.52
2022-11-25T05:34:21.036Z,100679.45
2022-11-25T05:37:48.253Z,100679.91
2022-11-25T05:41:15.043Z,100681.20
2022-11-25T05:44:43.279Z,100681.11
2022-11-25T05:48:10.285Z,100682.95
2022-11-25T05:51:40.351Z,100686.36
2022-11-25T05:55:10.694Z,100686.20
2022-11-25T05:58:38.874Z,100685.39
2022-11-25T06:02:06.668Z,100685.28
2022-11-25T06:05:35.847Z,100685.70
2022-11-25T06:09:03.289Z,100689.19
2022-11-25T06:12:30.621Z,100695.77
2022-11-25T06:16:03.543Z,100699.94
2022-11-25T06:19:34.502Z,100698.47
2022-11-25T06:23:02.430Z,100705.23
2022-11-25T06:26:32.865Z,100711.42
2022-11-25T06:30:01.103Z,100708.55
2022-11-25T06:33:27.748Z,100708.55
2022-11-25T06:36:55.816Z,100706.98
2022-11-25T06:40:22.861Z,100712.27
2022-11-25T06:43:51.330Z,100703.63
2022-11-25T06:47:18.585Z,100709.94
2022-11-25T06:50:45.424Z,100708.05
2022-11-25T06:54:12.660Z,100713.35
2022-11-25T06:57:39.374Z,100716.95
2022-11-25T07:01:15.868Z,100718.45
2022-11-25T07:04:44.944Z,100718.73
2022-11-25T07:08:11.746Z,100724.02
2022-11-25T07:11:41.674Z,100719.17
2022-11-25T07:15:10.080Z,100720.91
2022-11-25T07:18:39.898Z,100721.80
2022-11-25T07:22:07.430Z,100725.09
2022-11-25T07:25:38.417Z,100732.16
2022-11-25T07:29:23.340Z,100734.98
2022-11-25T07:32:58.407Z,100749.10
2022-11-25T07:36:25.492Z,100749.52
2022-11-25T07:39:52.121Z,100753.98
2022-11-25T07:43:24.248Z,100755.70
2022-11-25T07:46:52.290Z,100762.90
2022-11-25T07:50:19.450Z,100766.30
2022-11-25T07:53:57.053Z,100766.11
2022-11-25T07:57:36.950Z,100767.77
2022-11-25T08:01:09.770Z,100767.84
2022-11-25T08:04:39.904Z,100769.48
2022-11-25T08:08:06.869Z,100766.89
2022-11-25T08:11:35.200Z,100771.64
2022-11-25T08:15:06.042Z,100774.88
2022-11-25T08:18:35.455Z,100772.13
2022-11-25T08:22:02.225Z,100776.11
2022-11-25T08:25:30.022Z,100775.99
2022-11-25T08:28:58.051Z,100776.20
2022-11-25T08:32:25.006Z,100783.23
2022-11-25T08:35:58.303Z,100785.16
2022-11-25T08:43:12.628Z,100791.41
2022-11-25T08:46:41.120Z,100798.29
2022-11-25T08:50:10.616Z,100804.65
2022-11-25T08:53:38.613Z,100806.56
2022-11-25T08:57:09.610Z,100812.00
2022-11-25T09:00:36.477Z,100817.61
2022-11-25T09:04:02.916Z,100818.25
2022-11-25T09:07:30.944Z,100815.83
2022-11-25T09:10:57.791Z,100812.67
2022-11-25T09:14:25.296Z,100807.27
2022-11-25T09:17:58.662Z,100809.59
2022-11-25T09:21:26.125Z,100809.73
2022-11-25T09:24:53.088Z,100809.54
2022-11-25T09:28:19.676Z,100812.48
2022-11-25T09:31:51.411Z,100816.63
2022-11-25T09:35:21.976Z,100819.59
2022-11-25T09:38:49.407Z,100821.67
2022-11-25T09:42:51.814Z,100819.84
2022-11-25T09:46:46.263Z,100821.62
2022-11-25T09:50:22.283Z,100818.46
2022-11-25T09:53:54.867Z,100819.34
2022-11-25T09:57:27.700Z,100817.81
2022-11-25T10:00:55.592Z,100817.30
2022-11-25T10:04:26.935Z,100809.24
2022-11-25T10:07:59.566Z,100817.95
2022-11-25T10:11:36.404Z,100823.25
2022-11-25T10:15:06.321Z,100820.12
2022-11-25T10:18:40.969Z,100823.31
2022-11-25T10:22:19.380Z,100821.20
2022-11-25T10:25:51.884Z,100822.35
2022-11-25T10:29:27.671Z,100821.58
2022-11-25T10:33:04.984Z,100823.59
2022-11-25T10:36:34.939Z,100820.89
2022-11-25T10:40:01.848Z,100822.15
2022-11-25T10:43:31.945Z,100825.60
2022-11-25T10:47:17.517Z,100828.18
2022-11-25T10:50:55.438Z,100829.41
2022-11-25T10:54:27.635Z,100836.31
2022-11-25T10:57:58.017Z,100837.89
2022-11-25T11:01:26.539Z,100840.48
2022-11-25T11:05:01.696Z,100844.60
2022-11-25T11:08:38.364Z,100842.20
2022-11-25T11:12:14.947Z,100840.17
2022-11-25T11:15:49.955Z,100841.70
2022-11-25T11:19:29.394Z,100840.30
2022-11-25T11:23:10.477Z,100842.64
2022-11-25T11:26:40.173Z,100847.60
2022-11-25T11:30:15.811Z,100847.54
2022-11-25T11:33:51.498Z,100850.02
2022-11-25T11:37:43.924Z,100847.04
2022-11-25T11:41:18.574Z,100846.48
2022-11-25T11:45:00.628Z,100846.67
2022-11-25T11:48:40.312Z,100845.35
2022-11-25T11:52:13.157Z,100848.98
2022-11-25T11:56:19.298Z,100841.33
2022-11-25T11:59:53.783Z,100845.76
2022-11-25T12:03:23.402Z,100850.87
2022-11-25T12:07:04.266Z,100854.50
2022-11-25T12:10:35.151Z,100857.60
2022-11-25T12:14:07.030Z,100862.91
2022-11-25T12:17:37.352Z,100860.14
2022-11-25T12:21:06.558Z,100860.12
2022-11-25T12:24:43.507Z,100864.73
2022-11-25T12:28:14.286Z,100861.59
2022-11-25T12:31:46.093Z,100861.92
2022-11-25T12:35:23.400Z,100865.81
2022-11-25T12:38:56.299Z,100861.13
2022-11-25T12:42:29.943Z,100863.35
2022-11-25T12:46:09.578Z,100855.98
2022-11-25T12:49:46.959Z,100853.89
2022-11-25T12:53:24.495Z,100855.41
2022-11-25T12:57:09.319Z,100851.08
2022-11-25T13:00:55.219Z,100847.85
2022-11-25T13:04:38.445Z,100846.16
2022-11-25T13:08:19.889Z,100854.24
2022-11-25T13:12:06.036Z,100854.99
2022-11-25T13:15:38.520Z,100862.94
2022-11-25T13:19:13.519Z,100873.09
2022-11-25T13:22:40.101Z,100873.64
2022-11-25T13:26:41.013Z,100867.66
2022-11-25T13:30:39.410Z,100872.50
2022-11-25T13:34:28.305Z,100872.51
2022-11-25T13:37:54.984Z,100878.51
2022-11-25T13:41:38.752Z,100878.17
2022-11-25T13:45:26.355Z,100884.61
2022-11-25T13:48:54.514Z,100884.86
2022-11-25T13:52:39.576Z,100882.60
2022-11-25T13:56:27.049Z,100891.33
2022-11-25T14:00:01.366Z,100890.84
2022-11-25T14:03:54.373Z,100895.48
2022-11-25T14:07:34.223Z,100901.01
2022-11-25T14:11:23.828Z,100901.86
2022-11-25T14:15:20.782Z,100903.42
2022-11-25T14:19:49.612Z,100903.63
2022-11-25T14:23:32.259Z,100906.77
2022-11-25T14:27:03.566Z,100904.95
2022-11-25T14:30:31.898Z,100912.01
2022-11-25T14:34:05.047Z,100916.32
2022-11-25T14:37:39.354Z,100921.99
2022-11-25T14:41:14.587Z,100921.50
2022-11-25T14:44:47.812Z,100919.79
2022-11-25T14:48:19.169Z,100923.00
2022-11-25T14:51:51.290Z,100927.27
2022-11-25T14:55:29.980Z,100932.36
2022-11-25T14:58:59.208Z,100937.30
2022-11-25T15:02:33.532Z,100935.09
2022-11-25T15:06:04.928Z,100935.75
2022-11-25T15:09:33.912Z,100939.48
2022-11-25T15:13:01.966Z,100944.11
2022-11-25T15:16:38.629Z,100945.33
2022-11-25T15:20:19.141Z,100951.55
2022-11-25T15:23:50.926Z,100951.93
2022-11-25T15:27:26.492Z,100949.57
2022-11-25T15:31:11.278Z,100947.90
2022-11-25T15:34:36.914Z,100954.80
2022-11-25T15:38:18.146Z,100950.23
2022-11-25T15:41:51.656Z,100952.32
2022-11-25T15:45:24.431Z,100958.19
2022-11-25T15:49:06.003Z,100956.52
2022-11-25T15:52:38.505Z,100957.58
2022-11-25T15:56:12.146Z,100957.23
2022-11-25T15:59:57.920Z,100957.20
2022-11-25T16:03:25.305Z,100957.86
2022-11-25T16:07:02.754Z,100963.81
2022-11-25T16:10:34.550Z,100965.30
2022-11-25T16:14:21.601Z,100963.71
2022-11-25T16:18:02.638Z,100966.77
2022-11-25T16:21:53.929Z,100967.76
2022-11-25T16:25:35.623Z,100967.41
2022-11-25T16:29:15.712Z,100974.13
2022-11-25T16:32:45.642Z,100977.09
2022-11-25T16:36:15.382Z,100981.06
2022-11-25T16:39:46.065Z,100970.16
2022-11-25T16:43:23.020Z,100981.83
2022-11-25T16:46:52.985Z,100982.19
2022-11-25T16:50:22.896Z,100990.61
2022-11-25T16:53:54.160Z,100995.27
2022-11-25T16:57:26.852Z,100990.16
2022-11-25T17:01:01.192Z,100998.05
2022-11-25T17:04:39.673Z,100994.45
2022-11-25T17:08:09.434Z,100993.92
2022-11-25T17:11:46.123Z,100993.09
2022-11-25T17:15:18.826Z,100996.98
2022-11-25T17:18:46.791Z,100995.92
2022-11-25T17:22:20.607Z,100997.96
2022-11-25T17:25:52.413Z,100992.80
2022-11-25T17:29:28.911Z,100995.70
2022-11-25T17:33:01.982Z,101001.48
2022-11-25T17:36:32.888Z,100999.63
2022-11-25T17:40:01.859Z,101010.45
2022-11-25T17:43:34.809Z,101008.75
2022-11-25T17:47:02.152Z,101010.29
2022-11-25T17:50:30.229Z,101012.55
2022-11-25T17:53:58.378Z,101012.73
2022-11-25T17:57:29.356Z,101015.65
2022-11-25T18:00:56.541Z,101024.07
2022-11-25T18:04:27.403Z,101022.22
2022-11-25T18:07:56.976Z,101026.00
2022-11-25T18:11:28.869Z,101027.39
2022-11-25T18:14:57.006Z,101029.45
2022-11-25T18:18:26.167Z,101032.19
2022-11-25T18:22:01.311Z,101032.02
2022-11-25T18:25:32.347Z,101033.36
2022-11-25T18:29:08.537Z,101032.33
2022-11-25T18:32:42.976Z,101033.17
2022-11-25T18:36:24.433Z,101035.02
2022-11-25T18:40:05.986Z,101037.88
2022-11-25T18:47:35.360Z,101034.94
2022-11-25T18:51:04.409Z,101041.44
2022-11-25T18:54:39.968Z,101043.15
2022-11-25T18:58:17.755Z,101044.52
2022-11-25T19:01:49.599Z,101049.15
2022-11-25T19:05:24.370Z,101045.78
2022-11-25T19:08:53.543Z,101044.60
2022-11-25T19:12:36.768Z,101046.15
2022-11-25T19:16:26.275Z,101049.26
2022-11-25T19:19:53.692Z,101051.15
2022-11-25T19:23:29.849Z,101045.70
2022-11-25T19:26:58.399Z,101050.84
2022-11-25T19:30:40.253Z,101060.43
2022-11-25T19:34:08.749Z,101062.48
2022-11-25T19:37:39.198Z,101062.48
2022-11-25T19:41:11.050Z,101066.25
2022-11-25T19:44:38.776Z,101064.36
2022-11-25T19:48:10.351Z,101074.77
2022-11-25T19:51:42.902Z,101071.36
2022-11-25T19:55:18.948Z,101078.70
2022-11-25T19:58:46.325Z,101080.55
2022-11-25T20:02:17.818Z,101084.67
2022-11-25T20:05:51.775Z,101088.25
2022-11-25T20:09:19.842Z,101088.77
2022-11-25T20:12:47.799Z,101093.56
2022-11-25T20:16:20.315Z,101094.27
2022-11-25T20:19:52.222Z,101096.01
2022-11-25T20:23:24.721Z,101102.20
2022-11-25T20:26:54.708Z,101100.98
2022-11-25T20:30:24.911Z,101102.71
2022-11-25T20:33:52.656Z,101103.73
2022-11-25T20:37:26.145Z,101101.35
2022-11-25T20:40:58.560Z,101106.32
2022-11-25T20:44:30.445Z,101105.80
2022-11-25T20:48:00.354Z,101113.16
2022-11-25T20:51:28.302Z,101116.92
2022-11-25T20:54:58.447Z,101121.02
2022-11-25T20:58:30.544Z,101128.05
2022-11-25T21:01:59.358Z,101130.77
2022-11-25T21:05:31.733Z,101133.00
2022-11-25T21:09:01.352Z,101140.52
2022-11-25T21:12:51.220Z,101136.93
2022-11-25T21:16:20.099Z,101136.06
2022-11-25T21:19:47.150Z,101137.45
2022-11-25T21:23:24.832Z,101140.52
2022-11-25T21:26:53.457Z,101143.25
2022-11-25T21:30:24.712Z,101143.42
2022-11-25T21:33:56.008Z,101145.81
2022-11-25T21:37:33.319Z,101149.74
2022-11-25T21:41:02.167Z,101146.66
2022-11-25T21:44:42.204Z,101151.27
2022-11-25T21:48:18.285Z,101156.38
2022-11-25T21:51:47.076Z,101157.07
2022-11-25T21:55:15.588Z,101159.28
2022-11-25T21:58:45.295Z,101164.90
2022-11-25T22:02:20.329Z,101167.30
2022-11-25T22:05:47.083Z,101167.48
2022-11-25T22:09:14.030Z,101171.08
2022-11-25T22:12:43.417Z,101173.29
2022-11-25T22:16:14.762Z,101179.81
2022-11-25T22:19:47.938Z,101183.75
2022-11-25T22:23:18.433Z,101190.06
2022-11-25T22:26:47.171Z,101195.54
2022-11-25T22:30:20.911Z,101205.29
2022-11-25T22:33:48.650Z,101213.83
2022-11-25T22:37:49.343Z,101208.52
2022-11-25T22:41:23.471Z,101215.33
2022-11-25T22:44:52.997Z,101221.45
2022-11-25T22:48:27.754Z,101216.82
2022-11-25T22:51:55.952Z,101217.13
2022-11-25T22:55:26.145Z,101222.23
2022-11-25T22:59:00.327Z,101218.45
2022-11-25T23:02:34.410Z,101216.20
2022-11-25T23:06:02.160Z,101219.59
2022-11-25T23:09:29.722Z,101218.55
2022-11-25T23:12:57.110Z,101217.84
2022-11-25T23:16:24.122Z,101220.75
2022-11-25T23:19:52.642Z,101223.00
2022-11-25T23:23:21.063Z,101223.86
2022-11-25T23:27:03.241Z,101228.52
2022-11-25T23:30:31.216Z,101226.64
2022-11-25T23:33:58.354Z,101228.01
2022-11-25T23:37:25.445Z,101228.21
2022-11-25T23:40:52.077Z,101226.48
2022-11-25T23:44:24.241Z,101227.67
2022-11-25T23:47:54.379Z,101234.33
2022-11-25T23:51:22.352Z,101236.52
2022-11-25T23:54:51.492Z,101232.57
2022-11-25T23:58:20.946Z,101232.54
